Time;durP1;ratioP1;P1;durP2;ratioP2;P2;SDS_P1;SDS_P2;PMS_P1;PMS_P2;Temp;Humidity;BMP_temperature;BMP_pressure;BME280_temperature;BME280_humidity;BME280_pressure;Samples;Min_cycle;Max_cycle;Signal;HPM_P1;HPM_P2
2024/01/04 00:01:19;;;;;;;;;;;6.60;99.90;;;;;;5055838;28;19905;-76
2024/01/04 00:03:44;;;;;;;;;;;6.50;99.90;;;;;;5055756;28;19992;-76
2024/01/04 00:06:10;;;;;;;;;;;6.40;99.90;;;;;;5038480;28;19909;-76
2024/01/04 00:08:36;;;;;;;;;;;6.30;99.90;;;;;;5037986;28;19971;-76
2024/01/04 00:11:06;;;;;;;;;;;6.30;99.90;;;;;;5056442;28;20402;-76
2024/01/04 00:13:32;;;;;;;;;;;6.30;99.90;;;;;;5037811;28;19954;-75
2024/01/04 00:15:57;;;;;;;;;;;6.30;99.90;;;;;;5056634;28;19991;-74
2024/01/04 00:18:23;;;;;;;;;;;6.20;99.90;;;;;;5056581;28;19958;-75
2024/01/04 00:20:48;;;;;;;;;;;6.30;99.90;;;;;;5056664;28;19959;-76
2024/01/04 00:23:14;;;;;;;;;;;6.40;99.90;;;;;;5055969;28;19916;-75
2024/01/04 00:25:39;;;;;;;;;;;6.20;99.90;;;;;;5056793;28;19981;-76
2024/01/04 00:28:05;;;;;;;;;;;6.30;99.90;;;;;;5057397;28;19909;-77
2024/01/04 00:30:30;;;;;;;;;;;6.20;99.90;;;;;;5057385;28;19904;-76
2024/01/04 00:32:56;;;;;;;;;;;6.10;99.90;;;;;;5039774;28;19905;-77
2024/01/04 00:35:22;;;;;;;;;;;6.10;99.90;;;;;;5058144;28;19911;-77
2024/01/04 00:37:48;;;;;;;;;;;6.10;99.90;;;;;;5037475;28;20070;-76
2024/01/04 00:40:13;;;;;;;;;;;6.00;99.90;;;;;;5036621;28;19909;-76
2024/01/04 00:42:39;;;;;;;;;;;6.00;99.90;;;;;;5035948;28;19912;-76
2024/01/04 00:45:04;;;;;;;;;;;6.00;99.90;;;;;;5053873;28;19915;-76
2024/01/04 00:47:30;;;;;;;;;;;6.10;99.90;;;;;;5053715;28;19905;-76
2024/01/04 00:49:55;;;;;;;;;;;6.10;99.90;;;;;;5035882;28;20357;-76
2024/01/04 00:52:21;;;;;;;;;;;6.00;99.90;;;;;;5036548;28;19948;-77
2024/01/04 00:54:46;;;;;;;;;;;5.90;99.90;;;;;;5054781;28;19915;-75
2024/01/04 00:57:12;;;;;;;;;;;5.80;99.90;;;;;;5036591;28;20507;-76
2024/01/04 00:59:37;;;;;;;;;;;5.80;99.90;;;;;;5054731;28;19916;-76
2024/01/04 01:02:03;;;;;;;;;;;5.80;99.90;;;;;;5053699;28;19913;-77
2024/01/04 01:04:28;;;;;;;;;;;5.80;99.90;;;;;;5054443;28;20366;-76
2024/01/04 01:06:54;;;;;;;;;;;5.90;99.90;;;;;;5054280;28;19998;-76
2024/01/04 01:09:20;;;;;;;;;;;5.70;99.90;;;;;;5055180;28;19912;-76
2024/01/04 01:11:45;;;;;;;;;;;5.70;99.90;;;;;;5036550;28;20304;-76
2024/01/04 01:14:11;;;;;;;;;;;5.70;99.90;;;;;;5054742;28;20354;-76
2024/01/04 01:16:36;;;;;;;;;;;5.70;99.90;;;;;;5037152;28;19905;-77
2024/01/04 01:19:02;;;;;;;;;;;5.60;99.90;;;;;;5054792;28;19909;-77
2024/01/04 01:21:28;;;;;;;;;;;5.70;99.90;;;;;;5054479;28;20000;-76
2024/01/04 01:23:53;;;;;;;;;;;5.60;99.90;;;;;;5055513;28;19955;-76
2024/01/04 01:26:19;;;;;;;;;;;5.60;99.90;;;;;;5037200;28;19982;-76
2024/01/04 01:28:44;;;;;;;;;;;5.60;99.90;;;;;;5054735;28;19915;-76
2024/01/04 01:31:10;;;;;;;;;;;5.60;99.90;;;;;;5037236;28;19958;-75
2024/01/04 01:33:36;;;;;;;;;;;5.40;99.90;;;;;;5037414;28;19920;-76
2024/01/04 01:36:02;;;;;;;;;;;5.40;99.90;;;;;;5055681;28;19904;-76
2024/01/04 01:38:28;;;;;;;;;;;5.50;99.90;;;;;;5037743;28;19905;-77
2024/01/04 01:40:53;;;;;;;;;;;5.40;99.90;;;;;;5056115;28;19912;-75
2024/01/04 01:43:19;;;;;;;;;;;5.40;99.90;;;;;;5037447;28;19913;-76
2024/01/04 01:45:45;;;;;;;;;;;5.40;99.90;;;;;;5038229;28;20520;-77
2024/01/04 01:48:12;;;;;;;;;;;5.30;99.90;;;;;;5038072;28;19905;-76
2024/01/04 01:50:37;;;;;;;;;;;5.40;99.90;;;;;;5037624;28;19904;-77
2024/01/04 01:53:03;;;;;;;;;;;5.50;99.90;;;;;;5056020;28;19948;-76
2024/01/04 01:55:29;;;;;;;;;;;5.50;99.90;;;;;;5056098;28;19960;-76
2024/01/04 01:57:55;;;;;;;;;;;5.50;99.90;;;;;;5055770;28;20273;-77
2024/01/04 02:00:21;;;;;;;;;;;5.60;99.90;;;;;;5038961;28;19904;-77
2024/01/04 02:02:48;;;;;;;;;;;5.60;99.90;;;;;;5040442;28;19912;-77
2024/01/04 02:05:13;;;;;;;;;;;5.60;99.90;;;;;;5036871;28;20414;-76
2024/01/04 02:07:39;;;;;;;;;;;5.60;99.90;;;;;;5053863;28;19948;-76
2024/01/04 02:10:05;;;;;;;;;;;5.60;99.90;;;;;;5035823;28;19905;-76
2024/01/04 02:12:31;;;;;;;;;;;5.60;99.90;;;;;;5035971;28;20369;-76
2024/01/04 02:14:56;;;;;;;;;;;5.60;99.90;;;;;;5037798;28;19915;-76
2024/01/04 02:17:22;;;;;;;;;;;5.70;99.90;;;;;;5039244;28;19905;-76
2024/01/04 02:19:48;;;;;;;;;;;5.70;99.90;;;;;;5057631;28;19912;-76
2024/01/04 02:22:14;;;;;;;;;;;5.70;99.90;;;;;;5039649;28;20343;-75
2024/01/04 02:24:40;;;;;;;;;;;5.80;99.90;;;;;;5057114;28;20392;-76
2024/01/04 02:27:05;;;;;;;;;;;5.90;99.90;;;;;;5039605;28;20361;-76
2024/01/04 02:29:31;;;;;;;;;;;5.80;99.90;;;;;;5057895;28;19915;-75
2024/01/04 02:31:56;;;;;;;;;;;5.80;99.90;;;;;;5057084;28;19904;-76
2024/01/04 02:34:22;;;;;;;;;;;5.80;99.90;;;;;;5039565;28;19924;-76
2024/01/04 02:36:47;;;;;;;;;;;5.80;99.90;;;;;;5039413;28;19931;-76
2024/01/04 02:39:13;;;;;;;;;;;5.90;99.90;;;;;;5057753;28;19915;-76
2024/01/04 02:41:39;;;;;;;;;;;5.90;99.90;;;;;;5058315;28;20427;-76
2024/01/04 02:44:05;;;;;;;;;;;5.90;99.90;;;;;;5039644;28;20487;-76
2024/01/04 02:46:30;;;;;;;;;;;5.80;99.90;;;;;;5057864;28;19918;-76
2024/01/04 02:48:56;;;;;;;;;;;5.80;99.90;;;;;;5057774;28;19905;-76
2024/01/04 02:51:21;;;;;;;;;;;5.80;99.90;;;;;;5040721;28;20285;-76
2024/01/04 02:53:47;;;;;;;;;;;5.80;99.90;;;;;;5039852;28;19904;-76
2024/01/04 02:56:12;;;;;;;;;;;5.80;99.90;;;;;;5040435;28;20003;-76
2024/01/04 02:58:38;;;;;;;;;;;5.80;99.90;;;;;;5040340;28;20375;-76
2024/01/04 03:01:03;;;;;;;;;;;5.80;99.90;;;;;;5039958;28;19909;-76
2024/01/04 03:03:29;;;;;;;;;;;5.90;99.90;;;;;;5040311;28;19923;-76
2024/01/04 03:05:54;;;;;;;;;;;5.80;99.90;;;;;;5057949;28;19952;-76
2024/01/04 03:08:20;;;;;;;;;;;5.80;99.90;;;;;;5040343;28;20313;-76
2024/01/04 03:10:45;;;;;;;;;;;5.90;99.90;;;;;;5058292;28;19911;-76
2024/01/04 03:13:11;;;;;;;;;;;5.90;99.90;;;;;;5041027;28;19908;-76
2024/01/04 03:15:36;;;;;;;;;;;5.90;99.90;;;;;;5059574;28;19911;-77
2024/01/04 03:18:02;;;;;;;;;;;5.80;99.90;;;;;;5040622;28;19908;-76
2024/01/04 03:20:27;;;;;;;;;;;5.80;99.90;;;;;;5058647;28;19912;-76
2024/01/04 03:22:53;;;;;;;;;;;5.70;99.90;;;;;;5040717;28;20292;-76
2024/01/04 03:25:18;;;;;;;;;;;5.60;99.90;;;;;;5040422;28;19940;-76
2024/01/04 03:27:44;;;;;;;;;;;5.60;99.90;;;;;;5058280;28;19920;-76
2024/01/04 03:30:10;;;;;;;;;;;5.60;99.90;;;;;;5040766;28;19911;-76
2024/01/04 03:32:36;;;;;;;;;;;5.60;99.90;;;;;;5059027;28;19909;-77
2024/01/04 03:35:02;;;;;;;;;;;5.60;99.90;;;;;;5041108;28;19920;-76
2024/01/04 03:37:27;;;;;;;;;;;5.60;99.90;;;;;;5059279;28;19905;-76
2024/01/04 03:39:53;;;;;;;;;;;5.60;99.90;;;;;;5061268;28;19904;-77
2024/01/04 03:42:19;;;;;;;;;;;5.50;99.90;;;;;;5042425;28;19960;-77
2024/01/04 03:44:44;;;;;;;;;;;5.40;99.90;;;;;;5057958;28;20054;-76
2024/01/04 03:47:10;;;;;;;;;;;5.30;99.90;;;;;;5038971;28;19995;-76
2024/01/04 03:49:35;;;;;;;;;;;5.30;99.90;;;;;;5038642;28;19909;-76
2024/01/04 03:52:01;;;;;;;;;;;5.30;99.90;;;;;;5056678;28;19908;-76
2024/01/04 03:54:27;;;;;;;;;;;5.30;99.90;;;;;;5038896;28;19912;-76
2024/01/04 03:56:53;;;;;;;;;;;5.30;99.90;;;;;;5057054;28;19955;-76
2024/01/04 03:59:18;;;;;;;;;;;5.30;99.90;;;;;;5038659;28;19905;-76
2024/01/04 04:01:47;;;;;;;;;;;5.30;99.90;;;;;;5039203;28;20402;-76
2024/01/04 04:04:12;;;;;;;;;;;5.30;99.90;;;;;;5057481;28;19908;-76
2024/01/04 04:06:38;;;;;;;;;;;5.30;99.90;;;;;;5057126;28;19905;-76
2024/01/04 04:09:04;;;;;;;;;;;5.30;99.90;;;;;;5058152;28;19916;-77
2024/01/04 04:11:30;;;;;;;;;;;5.30;99.90;;;;;;5058782;28;20006;-77
2024/01/04 04:13:55;;;;;;;;;;;5.30;99.90;;;;;;5035619;28;19905;-76
2024/01/04 04:16:20;;;;;;;;;;;5.50;99.90;;;;;;5053949;28;19909;-76
2024/01/04 04:18:47;;;;;;;;;;;5.30;99.90;;;;;;5036049;28;19904;-76
2024/01/04 04:21:22;;;;;;;;;;;5.40;99.90;;;;;;5054454;28;20365;-76
2024/01/04 04:23:49;;;;;;;;;;;5.40;99.90;;;;;;5036477;28;20312;-77
2024/01/04 04:26:19;;;;;;;;;;;5.50;99.90;;;;;;5054377;28;19905;-77
2024/01/04 04:28:44;;;;;;;;;;;5.60;99.90;;;;;;5035902;28;19909;-77
2024/01/04 04:31:13;;;;;;;;;;;5.70;99.90;;;;;;5036635;28;19905;-77
2024/01/04 04:33:39;;;;;;;;;;;5.70;99.90;;;;;;5054261;28;19951;-76
2024/01/04 04:36:04;;;;;;;;;;;5.70;99.90;;;;;;5036525;28;20312;-76
2024/01/04 04:38:30;;;;;;;;;;;5.70;99.90;;;;;;5035898;28;19905;-76
2024/01/04 04:40:55;;;;;;;;;;;5.70;99.90;;;;;;5036578;28;19905;-77
2024/01/04 04:43:21;;;;;;;;;;;5.70;99.90;;;;;;5035953;28;19916;-77
2024/01/04 04:45:46;;;;;;;;;;;5.60;99.90;;;;;;5036399;28;20005;-76
2024/01/04 04:48:12;;;;;;;;;;;5.50;99.90;;;;;;5035955;28;19994;-76
2024/01/04 04:50:37;;;;;;;;;;;5.50;99.90;;;;;;5054626;28;19908;-76
2024/01/04 04:53:03;;;;;;;;;;;5.50;99.90;;;;;;5054883;28;19904;-76
2024/01/04 04:55:29;;;;;;;;;;;5.30;99.90;;;;;;5053431;28;20438;-76
2024/01/04 04:57:54;;;;;;;;;;;5.30;99.90;;;;;;5053986;28;19909;-77
2024/01/04 05:00:20;;;;;;;;;;;5.10;99.90;;;;;;5053159;28;20357;-76
2024/01/04 05:02:45;;;;;;;;;;;5.10;99.90;;;;;;5035600;28;19920;-75
2024/01/04 05:05:11;;;;;;;;;;;4.90;99.90;;;;;;5036099;28;19944;-76
2024/01/04 05:07:36;;;;;;;;;;;4.90;99.90;;;;;;5035855;28;19905;-76
2024/01/04 05:10:02;;;;;;;;;;;4.90;99.90;;;;;;5054995;28;20277;-75
2024/01/04 05:12:31;;;;;;;;;;;4.80;99.90;;;;;;5055144;28;19905;-76
2024/01/04 05:14:58;;;;;;;;;;;4.80;99.90;;;;;;5036935;28;19904;-76
2024/01/04 05:17:23;;;;;;;;;;;4.80;99.90;;;;;;5037507;28;19905;-77
2024/01/04 05:19:49;;;;;;;;;;;4.80;99.90;;;;;;5053961;28;19948;-76
2024/01/04 05:22:15;;;;;;;;;;;4.80;99.90;;;;;;5037064;28;19944;-76
2024/01/04 05:24:41;;;;;;;;;;;5.00;99.90;;;;;;5036471;28;20352;-76
2024/01/04 05:27:06;;;;;;;;;;;4.90;99.90;;;;;;5055362;28;19938;-76
2024/01/04 05:29:32;;;;;;;;;;;5.00;99.90;;;;;;5055877;28;19908;-76
2024/01/04 05:31:57;;;;;;;;;;;5.00;99.90;;;;;;5055829;28;19905;-76
2024/01/04 05:34:23;;;;;;;;;;;5.00;99.90;;;;;;5055623;28;19920;-76
2024/01/04 05:36:48;;;;;;;;;;;5.00;99.90;;;;;;5056769;28;19909;-76
2024/01/04 05:39:14;;;;;;;;;;;4.90;99.90;;;;;;5035968;28;19912;-75
2024/01/04 05:41:39;;;;;;;;;;;4.80;99.90;;;;;;5036857;28;19991;-75
2024/01/04 05:44:05;;;;;;;;;;;4.90;99.90;;;;;;5053982;28;19915;-76
2024/01/04 05:46:32;;;;;;;;;;;4.70;99.90;;;;;;5055283;28;19909;-76
2024/01/04 05:48:58;;;;;;;;;;;4.80;99.90;;;;;;5056941;28;19991;-76
2024/01/04 05:51:23;;;;;;;;;;;4.70;99.90;;;;;;5041902;28;19947;-77
2024/01/04 05:53:49;;;;;;;;;;;4.60;99.90;;;;;;5039985;28;20311;-77
2024/01/04 05:56:15;;;;;;;;;;;4.60;99.90;;;;;;5035757;28;19954;-75
2024/01/04 05:58:40;;;;;;;;;;;4.60;99.90;;;;;;5058845;28;19905;-75
2024/01/04 06:01:08;;;;;;;;;;;4.60;99.90;;;;;;5059021;28;19905;-75
2024/01/04 06:03:34;;;;;;;;;;;4.50;99.90;;;;;;5059220;28;19912;-78
2024/01/04 06:05:59;;;;;;;;;;;4.50;99.90;;;;;;5041349;28;20339;-76
2024/01/04 06:08:25;;;;;;;;;;;4.40;99.90;;;;;;5059391;28;20397;-76
2024/01/04 06:10:50;;;;;;;;;;;4.40;99.90;;;;;;5058947;28;19916;-75
2024/01/04 06:13:18;;;;;;;;;;;4.40;99.90;;;;;;5041706;28;19955;-76
2024/01/04 06:15:45;;;;;;;;;;;4.30;99.90;;;;;;5060234;28;19951;-76
2024/01/04 06:18:11;;;;;;;;;;;4.40;99.90;;;;;;5062301;28;19904;-77
2024/01/04 06:20:38;;;;;;;;;;;4.40;99.90;;;;;;5060210;28;19943;-76
2024/01/04 06:23:03;;;;;;;;;;;4.40;99.90;;;;;;5041104;28;20015;-76
2024/01/04 06:25:29;;;;;;;;;;;4.40;99.90;;;;;;5059393;28;20447;-76
2024/01/04 06:27:55;;;;;;;;;;;4.40;99.90;;;;;;5040364;28;19939;-76
2024/01/04 06:30:20;;;;;;;;;;;4.40;99.90;;;;;;5041069;28;19912;-76
2024/01/04 06:32:46;;;;;;;;;;;4.40;99.90;;;;;;5040726;28;19904;-77
2024/01/04 06:35:11;;;;;;;;;;;4.40;99.90;;;;;;5039062;28;19919;-77
2024/01/04 06:37:37;;;;;;;;;;;4.20;99.90;;;;;;5059136;28;19905;-76
2024/01/04 06:40:07;;;;;;;;;;;4.20;99.90;;;;;;5041352;28;19909;-77
2024/01/04 06:42:33;;;;;;;;;;;4.20;99.90;;;;;;5041021;28;19919;-76
2024/01/04 06:44:58;;;;;;;;;;;4.30;99.90;;;;;;5041589;28;19924;-76
2024/01/04 06:47:24;;;;;;;;;;;4.30;99.90;;;;;;5059872;28;19913;-76
2024/01/04 06:49:49;;;;;;;;;;;4.20;99.90;;;;;;5060283;28;19991;-77
2024/01/04 06:52:15;;;;;;;;;;;4.20;99.90;;;;;;5061604;28;19909;-76
2024/01/04 06:54:40;;;;;;;;;;;4.20;99.90;;;;;;5058390;28;20392;-76
2024/01/04 06:57:06;;;;;;;;;;;4.20;99.90;;;;;;5038895;28;19912;-76
2024/01/04 06:59:32;;;;;;;;;;;4.20;99.90;;;;;;5056656;28;19912;-76
2024/01/04 07:01:58;;;;;;;;;;;4.20;99.90;;;;;;5033320;28;19917;-76
2024/01/04 07:04:23;;;;;;;;;;;4.20;99.90;;;;;;5037783;28;19920;-76
2024/01/04 07:06:49;;;;;;;;;;;4.20;99.90;;;;;;5038053;28;19934;-76
2024/01/04 07:09:14;;;;;;;;;;;4.30;99.90;;;;;;5038283;28;19909;-76
2024/01/04 07:11:40;;;;;;;;;;;4.20;99.90;;;;;;5038540;28;19909;-76
2024/01/04 07:14:05;;;;;;;;;;;4.30;99.90;;;;;;5056429;28;19960;-76
2024/01/04 07:16:31;;;;;;;;;;;4.40;99.90;;;;;;5056346;28;19905;-75
2024/01/04 07:18:56;;;;;;;;;;;4.40;99.90;;;;;;5038364;28;19908;-77
2024/01/04 07:21:22;;;;;;;;;;;4.40;99.90;;;;;;5038330;28;19965;-77
2024/01/04 07:23:47;;;;;;;;;;;4.50;99.90;;;;;;5056824;28;20403;-77
2024/01/04 07:26:14;;;;;;;;;;;4.60;99.90;;;;;;5038339;28;19916;-76
2024/01/04 07:28:40;;;;;;;;;;;4.90;99.90;;;;;;5056574;28;19912;-76
2024/01/04 07:31:05;;;;;;;;;;;5.20;99.90;;;;;;5056096;28;19905;-77
2024/01/04 07:33:31;;;;;;;;;;;5.50;99.90;;;;;;5038365;28;19939;-77
2024/01/04 07:35:56;;;;;;;;;;;5.70;99.90;;;;;;5056167;28;19908;-76
2024/01/04 07:38:22;;;;;;;;;;;5.90;99.90;;;;;;5055339;28;20343;-76
2024/01/04 07:40:48;;;;;;;;;;;6.20;99.90;;;;;;5037499;28;19905;-76
2024/01/04 07:43:13;;;;;;;;;;;6.40;99.90;;;;;;5038073;28;19936;-76
2024/01/04 07:45:39;;;;;;;;;;;6.60;99.90;;;;;;5056009;28;19943;-77
2024/01/04 07:48:04;;;;;;;;;;;6.90;99.90;;;;;;5055840;28;19913;-76
2024/01/04 07:50:30;;;;;;;;;;;7.00;99.90;;;;;;5056240;28;19947;-77
2024/01/04 07:52:55;;;;;;;;;;;7.20;99.90;;;;;;5055964;28;19908;-76
2024/01/04 07:55:21;;;;;;;;;;;7.40;99.90;;;;;;5055380;28;20012;-76
2024/01/04 07:57:46;;;;;;;;;;;7.90;99.90;;;;;;5054706;28;19905;-76
2024/01/04 08:00:12;;;;;;;;;;;8.10;99.90;;;;;;5037328;28;19909;-76
2024/01/04 08:02:39;;;;;;;;;;;8.20;99.90;;;;;;5036765;28;20308;-77
2024/01/04 08:05:04;;;;;;;;;;;8.40;99.90;;;;;;5055101;28;19909;-77
2024/01/04 08:07:30;;;;;;;;;;;8.50;99.90;;;;;;5055176;28;20261;-77
2024/01/04 08:09:56;;;;;;;;;;;8.70;99.90;;;;;;5055487;28;19916;-77
2024/01/04 08:12:21;;;;;;;;;;;8.90;99.90;;;;;;5038087;28;19905;-77
2024/01/04 08:14:47;;;;;;;;;;;9.20;99.90;;;;;;5038378;28;19908;-77
2024/01/04 08:17:12;;;;;;;;;;;9.70;99.90;;;;;;5039385;28;19905;-76
2024/01/04 08:19:38;;;;;;;;;;;10.30;99.90;;;;;;5039579;28;19908;-77
2024/01/04 08:22:03;;;;;;;;;;;10.80;99.90;;;;;;5056932;28;19909;-77
2024/01/04 08:24:29;;;;;;;;;;;11.10;99.90;;;;;;5040498;28;20272;-76
2024/01/04 08:26:54;;;;;;;;;;;11.20;99.90;;;;;;5040642;28;19909;-77
2024/01/04 08:29:20;;;;;;;;;;;11.30;99.90;;;;;;5058049;28;20515;-77
2024/01/04 08:31:45;;;;;;;;;;;11.30;99.90;;;;;;5055890;28;19905;-76
2024/01/04 08:34:11;;;;;;;;;;;11.20;99.90;;;;;;5036343;28;19928;-77
2024/01/04 08:36:37;;;;;;;;;;;10.90;99.90;;;;;;5054841;28;19912;-76
2024/01/04 08:39:03;;;;;;;;;;;10.60;99.90;;;;;;5054988;28;19912;-76
2024/01/04 08:41:29;;;;;;;;;;;10.20;99.90;;;;;;5055177;28;19904;-76
2024/01/04 08:43:56;;;;;;;;;;;9.90;99.90;;;;;;5054898;28;20385;-77
2024/01/04 08:46:21;;;;;;;;;;;9.70;99.90;;;;;;5036600;28;19908;-76
2024/01/04 08:48:47;;;;;;;;;;;9.60;99.90;;;;;;5036303;28;20286;-77
2024/01/04 08:51:13;;;;;;;;;;;9.60;99.90;;;;;;5035972;28;20353;-76
2024/01/04 08:53:38;;;;;;;;;;;9.60;99.90;;;;;;5035495;28;20432;-75
2024/01/04 08:56:08;;;;;;;;;;;9.70;99.90;;;;;;5035131;28;19962;-76
2024/01/04 08:58:34;;;;;;;;;;;9.80;99.90;;;;;;5035829;28;19999;-76
2024/01/04 09:01:00;;;;;;;;;;;9.90;99.90;;;;;;5054091;28;19905;-76
2024/01/04 09:03:26;;;;;;;;;;;10.00;99.90;;;;;;5054749;28;19919;-75
2024/01/04 09:05:51;;;;;;;;;;;10.10;99.90;;;;;;5035853;28;19912;-76
2024/01/04 09:08:17;;;;;;;;;;;10.10;99.90;;;;;;5054733;28;19950;-76
2024/01/04 09:10:42;;;;;;;;;;;10.20;99.90;;;;;;5037218;28;20289;-77
2024/01/04 09:13:08;;;;;;;;;;;10.30;99.90;;;;;;5036302;28;19927;-77
2024/01/04 09:15:34;;;;;;;;;;;10.30;99.90;;;;;;5054644;28;20296;-77
2024/01/04 09:18:00;;;;;;;;;;;10.30;99.90;;;;;;5037713;28;19912;-76
2024/01/04 09:20:25;;;;;;;;;;;10.40;99.90;;;;;;5055518;28;19905;-76
2024/01/04 09:22:51;;;;;;;;;;;10.50;99.90;;;;;;5034764;28;19919;-75
2024/01/04 09:25:16;;;;;;;;;;;10.60;99.90;;;;;;5054460;28;19916;-75
2024/01/04 09:27:42;;;;;;;;;;;10.60;99.90;;;;;;5055903;28;19909;-77
2024/01/04 09:30:08;;;;;;;;;;;10.70;99.90;;;;;;5039918;28;19999;-77
2024/01/04 09:32:34;;;;;;;;;;;10.70;99.90;;;;;;5039477;28;19940;-76
2024/01/04 09:35:00;;;;;;;;;;;10.80;99.90;;;;;;5057709;28;20369;-76
2024/01/04 09:37:25;;;;;;;;;;;11.00;99.90;;;;;;5039319;28;19916;-76
2024/01/04 09:39:51;;;;;;;;;;;11.20;99.90;;;;;;5057441;28;19904;-76
2024/01/04 09:42:16;;;;;;;;;;;11.30;99.90;;;;;;5057675;28;20348;-77
2024/01/04 09:44:45;;;;;;;;;;;11.50;99.90;;;;;;5039081;28;19904;-75
2024/01/04 09:47:13;;;;;;;;;;;11.70;99.90;;;;;;5057433;28;19909;-76
2024/01/04 09:49:39;;;;;;;;;;;11.80;99.90;;;;;;5038429;28;20273;-75
2024/01/04 09:52:05;;;;;;;;;;;12.00;99.90;;;;;;5056973;28;19913;-76
2024/01/04 09:54:31;;;;;;;;;;;12.00;99.90;;;;;;5056991;28;20387;-75
2024/01/04 09:56:57;;;;;;;;;;;12.20;99.90;;;;;;5039483;28;19912;-76
2024/01/04 09:59:23;;;;;;;;;;;12.20;99.90;;;;;;5040019;28;19908;-76
2024/01/04 10:01:49;;;;;;;;;;;12.10;99.90;;;;;;5039954;28;20269;-76
2024/01/04 10:04:16;;;;;;;;;;;12.00;99.90;;;;;;5040449;28;19913;-76
2024/01/04 10:06:43;;;;;;;;;;;11.90;99.90;;;;;;5041063;28;19932;-76
2024/01/04 10:09:19;;;;;;;;;;;11.90;99.90;;;;;;5041485;28;19908;-76
2024/01/04 10:11:50;;;;;;;;;;;11.70;99.90;;;;;;5058916;28;19912;-76
2024/01/04 10:14:16;;;;;;;;;;;11.70;99.90;;;;;;5041029;28;19963;-76
2024/01/04 10:16:42;;;;;;;;;;;11.60;99.90;;;;;;5042029;28;19904;-77
2024/01/04 10:19:08;;;;;;;;;;;11.40;99.90;;;;;;5059003;28;20050;-76
2024/01/04 10:21:34;;;;;;;;;;;11.50;99.90;;;;;;5057896;28;19959;-76
2024/01/04 10:24:00;;;;;;;;;;;11.50;99.90;;;;;;5058329;28;19963;-76
2024/01/04 10:26:27;;;;;;;;;;;11.50;99.90;;;;;;5057954;28;19964;-76
2024/01/04 10:29:02;;;;;;;;;;;11.50;99.90;;;;;;5058372;28;20358;-76
2024/01/04 10:31:27;;;;;;;;;;;11.50;99.90;;;;;;5057919;28;20373;-77
2024/01/04 10:33:57;;;;;;;;;;;11.50;99.90;;;;;;5036514;28;19928;-76
2024/01/04 10:36:23;;;;;;;;;;;11.50;99.70;;;;;;5035104;28;20047;-75
2024/01/04 10:38:48;;;;;;;;;;;11.50;99.30;;;;;;5039758;28;19929;-77
2024/01/04 10:41:20;;;;;;;;;;;11.50;99.70;;;;;;5036399;28;19979;-76
2024/01/04 10:43:45;;;;;;;;;;;11.40;99.90;;;;;;5031990;28;19994;-76
2024/01/04 10:46:12;;;;;;;;;;;11.40;99.90;;;;;;5035678;28;19945;-77
2024/01/04 10:48:38;;;;;;;;;;;11.30;99.90;;;;;;5034624;28;20302;-76
2024/01/04 10:51:04;;;;;;;;;;;11.30;99.90;;;;;;5034134;28;19905;-77
2024/01/04 10:53:30;;;;;;;;;;;11.30;99.90;;;;;;5034405;28;20008;-76
2024/01/04 10:55:56;;;;;;;;;;;11.40;99.90;;;;;;5034936;28;19940;-76
2024/01/04 10:58:23;;;;;;;;;;;11.40;99.90;;;;;;5035925;28;19905;-76
2024/01/04 11:00:50;;;;;;;;;;;11.50;99.90;;;;;;5034831;28;19916;-76
2024/01/04 11:03:17;;;;;;;;;;;11.50;99.90;;;;;;5033566;28;20333;-76
2024/01/04 11:05:43;;;;;;;;;;;11.60;99.90;;;;;;5035359;28;20262;-75
2024/01/04 11:08:10;;;;;;;;;;;11.70;99.90;;;;;;5035095;28;19909;-76
2024/01/04 11:10:36;;;;;;;;;;;11.70;99.40;;;;;;5034793;28;20471;-75
2024/01/04 11:13:02;;;;;;;;;;;11.60;99.90;;;;;;5035309;28;19905;-76
2024/01/04 11:15:28;;;;;;;;;;;11.80;99.50;;;;;;5034321;28;19966;-76
2024/01/04 11:18:02;;;;;;;;;;;11.70;99.60;;;;;;5035734;28;20383;-76
2024/01/04 11:20:28;;;;;;;;;;;11.80;99.20;;;;;;5035294;28;19909;-76
2024/01/04 11:23:08;;;;;;;;;;;11.80;99.00;;;;;;5033399;28;19920;-75
2024/01/04 11:25:45;;;;;;;;;;;11.80;98.70;;;;;;5035103;28;19909;-76
2024/01/04 11:28:11;;;;;;;;;;;11.80;98.40;;;;;;5034279;28;19905;-76
2024/01/04 11:30:37;;;;;;;;;;;11.70;98.60;;;;;;5035714;28;19909;-74
2024/01/04 11:33:06;;;;;;;;;;;11.60;98.90;;;;;;5035604;28;20061;-75
2024/01/04 11:35:38;;;;;;;;;;;11.50;99.10;;;;;;5054673;28;19916;-76
2024/01/04 11:38:07;;;;;;;;;;;11.40;99.70;;;;;;5054564;28;19944;-75
2024/01/04 11:40:34;;;;;;;;;;;11.40;99.00;;;;;;5054738;28;19911;-76
2024/01/04 11:43:00;;;;;;;;;;;11.40;99.90;;;;;;5036696;28;20399;-76
2024/01/04 11:45:25;;;;;;;;;;;11.40;99.90;;;;;;5035864;28;19915;-75
2024/01/04 11:47:52;;;;;;;;;;;11.40;99.80;;;;;;5036086;28;19905;-76
2024/01/04 11:50:25;;;;;;;;;;;11.40;99.30;;;;;;5055288;28;20018;-75
2024/01/04 11:53:01;;;;;;;;;;;11.40;99.80;;;;;;5054703;28;19983;-76
2024/01/04 11:55:29;;;;;;;;;;;11.30;99.90;;;;;;5054123;28;19905;-76
2024/01/04 11:58:10;;;;;;;;;;;11.30;99.90;;;;;;5036763;28;20381;-76
2024/01/04 12:00:36;;;;;;;;;;;11.30;99.90;;;;;;5054763;28;19911;-76
2024/01/04 12:03:12;;;;;;;;;;;11.30;99.90;;;;;;5054517;28;19913;-75
2024/01/04 12:05:40;;;;;;;;;;;11.40;99.90;;;;;;5054919;28;19909;-77
2024/01/04 12:08:06;;;;;;;;;;;11.50;99.90;;;;;;5053984;28;19905;-76
2024/01/04 12:10:31;;;;;;;;;;;11.50;99.20;;;;;;5054847;28;20365;-76
2024/01/04 12:12:57;;;;;;;;;;;11.60;99.10;;;;;;5054702;28;20361;-76
2024/01/04 12:15:22;;;;;;;;;;;11.50;98.40;;;;;;5037043;28;19932;-76
2024/01/04 12:17:48;;;;;;;;;;;11.50;98.60;;;;;;5037258;28;19904;-76
2024/01/04 12:20:13;;;;;;;;;;;11.40;98.40;;;;;;5036921;28;19928;-76
2024/01/04 12:22:39;;;;;;;;;;;11.40;99.20;;;;;;5055016;28;20296;-76
2024/01/04 12:25:06;;;;;;;;;;;11.40;98.70;;;;;;5055031;28;19912;-76
2024/01/04 12:27:32;;;;;;;;;;;11.30;98.90;;;;;;5037674;28;19991;-76
2024/01/04 12:29:58;;;;;;;;;;;11.30;99.40;;;;;;5036469;28;20251;-76
2024/01/04 12:32:24;;;;;;;;;;;11.20;98.90;;;;;;5036439;28;20423;-76
2024/01/04 12:34:49;;;;;;;;;;;11.20;99.30;;;;;;5056360;28;19925;-75
2024/01/04 12:37:16;;;;;;;;;;;11.20;98.60;;;;;;5039011;28;19904;-77
2024/01/04 12:39:42;;;;;;;;;;;11.10;98.90;;;;;;5038199;28;20362;-76
2024/01/04 12:42:12;;;;;;;;;;;11.20;99.00;;;;;;5056780;28;19915;-76
2024/01/04 12:44:37;;;;;;;;;;;11.20;99.10;;;;;;5037410;28;19912;-76
2024/01/04 12:47:04;;;;;;;;;;;11.20;98.70;;;;;;5039457;28;19905;-76
2024/01/04 12:49:30;;;;;;;;;;;11.20;98.30;;;;;;5037411;28;19909;-76
2024/01/04 12:51:55;;;;;;;;;;;11.30;98.20;;;;;;5053684;28;19904;-75
2024/01/04 12:54:21;;;;;;;;;;;11.30;98.30;;;;;;5035752;28;20316;-76
2024/01/04 12:56:47;;;;;;;;;;;11.30;98.50;;;;;;5036186;28;19904;-76
2024/01/04 12:59:14;;;;;;;;;;;11.40;98.20;;;;;;5053994;28;20320;-76
2024/01/04 13:01:40;;;;;;;;;;;11.30;97.80;;;;;;5035948;28;20016;-76
2024/01/04 13:04:07;;;;;;;;;;;11.30;97.70;;;;;;5036341;28;20412;-76
2024/01/04 13:06:33;;;;;;;;;;;11.30;97.80;;;;;;5036818;28;20324;-76
2024/01/04 13:08:58;;;;;;;;;;;11.30;97.80;;;;;;5054032;28;19920;-75
2024/01/04 13:11:24;;;;;;;;;;;11.30;97.90;;;;;;5034994;28;19912;-75
2024/01/04 13:13:50;;;;;;;;;;;11.20;98.40;;;;;;5034954;28;19926;-76
2024/01/04 13:16:16;;;;;;;;;;;11.20;98.00;;;;;;5034995;28;19912;-76
2024/01/04 13:18:41;;;;;;;;;;;11.20;98.10;;;;;;5034277;28;20640;-76
2024/01/04 13:21:07;;;;;;;;;;;11.20;98.80;;;;;;5034864;28;19905;-75
2024/01/04 13:23:33;;;;;;;;;;;11.10;99.10;;;;;;5035032;28;19916;-75
2024/01/04 13:25:59;;;;;;;;;;;11.10;98.60;;;;;;5035096;28;19948;-76
2024/01/04 13:28:25;;;;;;;;;;;11.10;98.70;;;;;;5035228;28;19908;-75
2024/01/04 13:30:51;;;;;;;;;;;11.20;98.90;;;;;;5034500;28;19911;-76
2024/01/04 13:33:16;;;;;;;;;;;11.20;98.50;;;;;;5034216;28;19916;-76
2024/01/04 13:35:42;;;;;;;;;;;11.20;98.50;;;;;;5034911;28;19995;-75
2024/01/04 13:38:07;;;;;;;;;;;11.20;99.20;;;;;;5053179;28;19905;-77
2024/01/04 13:40:33;;;;;;;;;;;11.20;99.30;;;;;;5053773;28;20373;-76
2024/01/04 13:42:59;;;;;;;;;;;11.30;98.90;;;;;;5053039;28;19912;-76
2024/01/04 13:45:24;;;;;;;;;;;11.40;98.60;;;;;;5034530;28;19913;-75
2024/01/04 13:47:50;;;;;;;;;;;11.50;97.70;;;;;;5034411;28;20428;-76
2024/01/04 13:50:15;;;;;;;;;;;11.50;98.00;;;;;;5034345;28;20192;-76
2024/01/04 13:52:41;;;;;;;;;;;11.50;98.20;;;;;;5034497;28;19905;-76
2024/01/04 13:55:07;;;;;;;;;;;11.60;97.20;;;;;;5034172;28;20384;-76
2024/01/04 13:57:32;;;;;;;;;;;11.60;97.60;;;;;;5034414;28;19909;-75
2024/01/04 13:59:58;;;;;;;;;;;11.50;97.90;;;;;;5034888;28;20349;-77
2024/01/04 14:02:23;;;;;;;;;;;11.50;97.10;;;;;;5034520;28;20357;-77
2024/01/04 14:04:49;;;;;;;;;;;11.50;97.20;;;;;;5034920;28;20395;-77
2024/01/04 14:07:17;;;;;;;;;;;11.40;97.00;;;;;;5034181;28;19962;-75
2024/01/04 14:09:43;;;;;;;;;;;11.40;97.20;;;;;;5034478;28;19915;-77
2024/01/04 14:12:10;;;;;;;;;;;11.40;96.20;;;;;;5038795;28;19905;-75
2024/01/04 14:14:36;;;;;;;;;;;11.30;97.50;;;;;;5038314;28;19916;-76
2024/01/04 14:17:02;;;;;;;;;;;11.20;97.90;;;;;;5038696;28;19909;-76